Time;durP1;ratioP1;P1;durP2;ratioP2;P2;SDS_P1;SDS_P2;PMS_P1;PMS_P2;Temp;Humidity;BMP_temperature;BMP_pressure;BME280_temperature;BME280_humidity;BME280_pressure;Samples;Min_cycle;Max_cycle;Signal;HPM_P1;HPM_P2
2024/01/29 00:02:22;;;;;;;9.33;5.57;;;5.30;99.90;;;;;;5158070;27;20473;-76
2024/01/29 00:04:48;;;;;;;9.90;4.77;;;5.30;99.90;;;;;;5158316;27;20053;-76
2024/01/29 00:07:13;;;;;;;9.40;4.07;;;5.30;99.90;;;;;;5157906;27;20042;-76
2024/01/29 00:09:39;;;;;;;8.00;4.20;;;5.30;99.90;;;;;;5158040;27;20042;-76
2024/01/29 00:12:05;;;;;;;9.90;4.40;;;5.30;99.90;;;;;;5157887;27;20049;-76
2024/01/29 00:14:31;;;;;;;9.55;4.53;;;5.30;99.90;;;;;;5157985;27;20047;-76
2024/01/29 00:16:58;;;;;;;8.80;4.30;;;5.20;99.90;;;;;;5157934;27;20057;-76
2024/01/29 00:19:23;;;;;;;9.45;4.65;;;5.20;99.90;;;;;;5157706;27;20042;-76
2024/01/29 00:21:50;;;;;;;8.87;5.00;;;5.20;99.90;;;;;;5157827;27;20035;-76
2024/01/29 00:24:16;;;;;;;7.15;3.95;;;5.10;99.90;;;;;;5157599;27;20042;-76
2024/01/29 00:26:42;;;;;;;8.33;4.47;;;5.10;99.90;;;;;;5157761;27;20474;-76
2024/01/29 00:29:07;;;;;;;8.03;3.83;;;5.10;99.90;;;;;;5157479;27;20038;-76
2024/01/29 00:31:33;;;;;;;9.43;4.57;;;5.10;99.90;;;;;;5157727;27;20054;-76
2024/01/29 00:33:59;;;;;;;8.50;4.60;;;5.10;99.90;;;;;;5157637;27;20081;-76
2024/01/29 00:36:24;;;;;;;8.00;4.37;;;5.00;99.90;;;;;;5157302;27;20177;-76
2024/01/29 00:38:50;;;;;;;11.00;5.23;;;5.00;99.90;;;;;;5157434;27;20082;-76
2024/01/29 00:41:16;;;;;;;8.03;4.60;;;5.10;99.90;;;;;;5157281;27;20050;-76
2024/01/29 00:43:41;;;;;;;9.53;4.40;;;5.00;99.90;;;;;;5157409;27;20039;-77
2024/01/29 00:46:07;;;;;;;8.80;4.43;;;5.00;99.90;;;;;;5157257;27;20119;-76
2024/01/29 00:48:33;;;;;;;7.87;4.20;;;5.00;99.90;;;;;;5157341;27;20046;-76
2024/01/29 00:51:01;;;;;;;8.93;4.23;;;4.90;99.90;;;;;;5157440;27;20371;-76
2024/01/29 00:53:27;;;;;;;9.27;4.38;;;4.90;99.90;;;;;;5157102;27;20059;-77
2024/01/29 00:55:53;;;;;;;9.63;4.30;;;4.90;99.90;;;;;;5156941;27;20532;-76
2024/01/29 00:58:20;;;;;;;7.70;4.50;;;4.90;99.90;;;;;;5156916;27;20043;-76
2024/01/29 01:00:47;;;;;;;8.85;4.60;;;4.90;99.90;;;;;;5157064;27;20089;-76
2024/01/29 01:03:13;;;;;;;8.13;4.47;;;4.80;99.90;;;;;;5138628;27;20390;-76
2024/01/29 01:05:40;;;;;;;9.13;4.37;;;4.80;99.90;;;;;;5156964;27;20039;-76
2024/01/29 01:08:06;;;;;;;9.02;4.60;;;4.80;99.90;;;;;;5156875;27;20045;-76
2024/01/29 01:10:32;;;;;;;8.80;4.22;;;4.80;99.90;;;;;;5137001;27;20482;-76
2024/01/29 01:12:59;;;;;;;7.37;4.00;;;4.70;99.90;;;;;;5156941;27;20051;-76
2024/01/29 01:15:25;;;;;;;7.43;4.22;;;4.70;99.90;;;;;;5121127;27;20057;-77
2024/01/29 01:17:50;;;;;;;12.03;5.10;;;4.70;99.90;;;;;;5156688;27;20038;-76
2024/01/29 01:20:16;;;;;;;10.67;4.37;;;4.70;99.90;;;;;;5156649;27;20046;-76
2024/01/29 01:22:42;;;;;;;7.17;4.30;;;4.70;99.90;;;;;;5156589;27;20428;-76
2024/01/29 01:25:08;;;;;;;10.80;5.20;;;4.60;99.90;;;;;;5138306;27;20049;-77
2024/01/29 01:27:34;;;;;;;9.63;5.20;;;4.60;99.90;;;;;;5156364;27;20054;-76
2024/01/29 01:29:59;;;;;;;7.43;4.73;;;4.60;99.90;;;;;;5156492;27;20047;-76
2024/01/29 01:32:25;;;;;;;8.47;4.10;;;4.60;99.90;;;;;;5138081;27;20049;-76
2024/01/29 01:34:51;;;;;;;9.47;5.23;;;4.50;99.90;;;;;;5156541;27;20081;-76
2024/01/29 01:37:17;;;;;;;9.23;4.40;;;4.50;99.90;;;;;;5156177;27;20074;-76
2024/01/29 01:39:43;;;;;;;8.87;5.00;;;4.50;99.90;;;;;;5156377;27;20467;-76
2024/01/29 01:42:09;;;;;;;9.07;4.65;;;4.50;99.90;;;;;;5156241;27;20120;-76
2024/01/29 01:44:35;;;;;;;7.20;4.82;;;4.40;99.90;;;;;;5137487;27;20130;-76
2024/01/29 01:47:01;;;;;;;8.17;5.03;;;4.40;99.90;;;;;;5156374;27;20125;-76
2024/01/29 01:49:29;;;;;;;9.82;5.10;;;4.40;99.90;;;;;;5155988;27;20047;-76
2024/01/29 01:51:55;;;;;;;8.68;4.80;;;4.40;99.90;;;;;;5156057;27;20047;-76
2024/01/29 01:54:21;;;;;;;9.10;5.13;;;4.40;99.90;;;;;;5155862;27;20393;-76
2024/01/29 01:56:48;;;;;;;7.80;4.53;;;4.40;99.90;;;;;;5155933;27;20125;-76
2024/01/29 01:59:14;;;;;;;7.22;4.32;;;4.40;99.90;;;;;;5155812;27;20121;-75
2024/01/29 02:01:40;;;;;;;8.43;4.70;;;4.40;99.90;;;;;;5155900;27;20566;-76
2024/01/29 02:04:07;;;;;;;10.68;5.03;;;4.40;99.90;;;;;;5155901;27;20046;-76
2024/01/29 02:06:32;;;;;;;9.48;5.10;;;4.30;99.90;;;;;;5155635;27;20045;-77
2024/01/29 02:09:00;;;;;;;11.77;4.80;;;4.30;99.90;;;;;;5155777;27;20460;-77
2024/01/29 02:11:25;;;;;;;10.60;5.25;;;4.30;99.90;;;;;;5155482;27;20039;-76
2024/01/29 02:13:51;;;;;;;12.73;6.07;;;4.30;99.90;;;;;;5155315;27;20160;-76
2024/01/29 02:16:17;;;;;;;11.50;4.90;;;4.30;99.90;;;;;;5155416;27;20047;-75
2024/01/29 02:18:43;;;;;;;8.33;4.60;;;4.30;99.90;;;;;;5155554;27;20049;-76
2024/01/29 02:21:09;;;;;;;8.25;5.22;;;4.20;99.90;;;;;;5136711;27;20093;-76
2024/01/29 02:23:35;;;;;;;8.32;4.90;;;4.20;99.90;;;;;;5154922;27;20046;-76
2024/01/29 02:26:01;;;;;;;9.57;4.80;;;4.20;99.90;;;;;;5155498;27;20065;-76
2024/01/29 02:28:27;;;;;;;9.07;4.90;;;4.20;99.90;;;;;;5155225;27;20378;-76
2024/01/29 02:30:53;;;;;;;8.80;5.13;;;4.20;99.90;;;;;;5136828;27;20487;-76
2024/01/29 02:33:19;;;;;;;7.95;4.70;;;4.20;99.90;;;;;;5136812;27;20603;-76
2024/01/29 02:35:48;;;;;;;9.37;4.57;;;4.20;99.90;;;;;;5154987;27;20133;-76
2024/01/29 02:38:14;;;;;;;9.55;4.60;;;4.20;99.90;;;;;;5155109;27;20625;-76
2024/01/29 02:40:39;;;;;;;10.60;4.53;;;4.20;99.90;;;;;;5155015;27;20054;-76
2024/01/29 02:43:05;;;;;;;9.03;5.10;;;4.20;99.90;;;;;;5155193;27;20050;-76
2024/01/29 02:45:31;;;;;;;10.13;5.00;;;4.20;99.90;;;;;;5154856;27;20427;-76
2024/01/29 02:47:56;;;;;;;9.27;5.17;;;4.10;99.90;;;;;;5155024;27;20050;-76
2024/01/29 02:50:29;;;;;;;8.87;4.43;;;4.10;99.90;;;;;;5154833;27;20127;-75
2024/01/29 02:52:55;;;;;;;8.63;4.75;;;4.10;99.90;;;;;;5136442;27;20062;-76
2024/01/29 02:55:20;;;;;;;8.00;4.90;;;4.10;99.90;;;;;;5154777;27;20072;-75
2024/01/29 02:57:46;;;;;;;8.10;4.60;;;4.10;99.90;;;;;;5154846;27;20071;-76
2024/01/29 03:00:12;;;;;;;9.40;4.80;;;4.10;99.90;;;;;;5154874;27;20050;-76
2024/01/29 03:02:38;;;;;;;11.50;4.95;;;4.10;99.90;;;;;;5154618;27;20095;-76
2024/01/29 03:05:04;;;;;;;10.13;5.27;;;4.10;99.90;;;;;;5154457;27;20448;-76
2024/01/29 03:07:30;;;;;;;10.43;5.05;;;4.10;99.90;;;;;;5136354;27;20073;-76
2024/01/29 03:09:55;;;;;;;11.00;5.33;;;4.10;99.90;;;;;;5136306;27;20042;-76
2024/01/29 03:12:21;;;;;;;8.33;4.90;;;4.10;99.90;;;;;;5154691;27;20069;-76
2024/01/29 03:14:47;;;;;;;10.70;6.03;;;4.10;99.90;;;;;;5154542;27;20078;-76
2024/01/29 03:17:12;;;;;;;11.90;5.50;;;4.10;99.90;;;;;;5154728;27;20035;-76
2024/01/29 03:19:39;;;;;;;9.37;5.70;;;4.10;99.90;;;;;;5154417;27;20054;-76
2024/01/29 03:22:05;;;;;;;7.15;4.65;;;4.00;99.90;;;;;;5154576;27;20095;-76
2024/01/29 03:24:31;;;;;;;8.43;5.40;;;4.10;99.90;;;;;;5154392;27;20043;-75
2024/01/29 03:26:56;;;;;;;9.53;5.30;;;4.10;99.90;;;;;;5136645;27;20151;-76
2024/01/29 03:29:22;;;;;;;8.03;5.07;;;4.20;99.90;;;;;;5154669;27;20047;-76
2024/01/29 03:31:48;;;;;;;9.93;5.40;;;4.10;99.90;;;;;;5154306;27;20078;-76
2024/01/29 03:34:13;;;;;;;8.70;5.33;;;4.10;99.90;;;;;;5158242;27;20133;-76
2024/01/29 03:36:39;;;;;;;7.43;5.10;;;4.10;99.90;;;;;;5158426;27;20051;-76
2024/01/29 03:39:05;;;;;;;9.70;5.27;;;4.10;99.90;;;;;;5140243;27;20047;-76
2024/01/29 03:41:34;;;;;;;9.10;4.97;;;4.10;99.90;;;;;;5140075;27;20045;-76
2024/01/29 03:43:59;;;;;;;11.15;5.85;;;4.10;99.90;;;;;;5140352;27;20051;-76
2024/01/29 03:46:25;;;;;;;9.53;5.63;;;4.10;99.90;;;;;;5140105;27;20043;-76
2024/01/29 03:48:51;;;;;;;10.10;4.83;;;4.10;99.90;;;;;;5158408;27;20042;-76
2024/01/29 03:51:17;;;;;;;11.68;6.40;;;4.10;99.90;;;;;;5158502;27;20046;-76
2024/01/29 03:53:43;;;;;;;9.77;5.20;;;4.10;99.90;;;;;;5158207;27;20561;-76
2024/01/29 03:56:08;;;;;;;10.10;5.10;;;4.10;99.90;;;;;;5158429;27;20050;-76
2024/01/29 03:58:34;;;;;;;9.80;5.47;;;4.10;99.90;;;;;;5138703;27;20440;-76
2024/01/29 04:00:59;;;;;;;10.60;4.83;;;4.10;99.90;;;;;;5158343;27;20129;-76
2024/01/29 04:03:25;;;;;;;10.03;5.77;;;4.10;99.90;;;;;;5158259;27;20046;-76
2024/01/29 04:05:51;;;;;;;8.63;5.50;;;4.10;99.90;;;;;;5157890;27;20494;-76
2024/01/29 04:08:16;;;;;;;8.60;5.67;;;4.10;99.90;;;;;;5158242;27;20050;-76
2024/01/29 04:10:42;;;;;;;10.77;5.43;;;4.00;99.90;;;;;;5139750;27;20046;-76
2024/01/29 04:13:08;;;;;;;9.30;5.37;;;4.10;99.90;;;;;;5158283;27;20106;-76
2024/01/29 04:15:34;;;;;;;8.60;5.43;;;4.00;99.90;;;;;;5157778;27;20042;-76
2024/01/29 04:17:59;;;;;;;10.50;5.80;;;4.10;99.90;;;;;;5157610;27;20062;-76
2024/01/29 04:20:25;;;;;;;9.53;5.13;;;4.00;99.90;;;;;;5157928;27;20163;-76
2024/01/29 04:22:51;;;;;;;10.10;5.50;;;4.00;99.90;;;;;;5157662;27;20046;-76
2024/01/29 04:25:16;;;;;;;9.47;5.07;;;4.00;99.90;;;;;;5157827;27;20038;-76
2024/01/29 04:27:42;;;;;;;8.93;5.20;;;4.00;99.90;;;;;;5157576;27;20049;-76
2024/01/29 04:30:08;;;;;;;8.97;5.80;;;4.00;99.90;;;;;;5157737;27;20047;-76
2024/01/29 04:32:34;;;;;;;8.80;5.22;;;4.00;99.90;;;;;;5157585;27;20078;-75
2024/01/29 04:35:00;;;;;;;9.50;5.80;;;4.00;99.90;;;;;;5157649;27;20105;-76
2024/01/29 04:37:26;;;;;;;9.27;5.25;;;4.00;99.90;;;;;;5157772;27;20055;-76
2024/01/29 04:39:52;;;;;;;10.57;5.60;;;4.00;99.90;;;;;;5157405;27;20464;-76
2024/01/29 04:42:18;;;;;;;10.47;5.53;;;3.90;99.90;;;;;;5157519;27;20043;-76
2024/01/29 04:44:43;;;;;;;10.13;5.83;;;4.00;99.90;;;;;;5157167;27;20054;-76
2024/01/29 04:47:09;;;;;;;10.77;5.43;;;4.00;99.90;;;;;;5157531;27;20497;-76
2024/01/29 04:49:35;;;;;;;8.43;5.27;;;4.00;99.90;;;;;;5157143;27;20051;-75
2024/01/29 04:52:00;;;;;;;12.30;6.77;;;4.00;99.90;;;;;;5157361;27;20497;-76
2024/01/29 04:54:26;;;;;;;8.83;6.10;;;4.10;99.90;;;;;;5157328;27;20079;-76
2024/01/29 04:56:52;;;;;;;9.17;6.03;;;4.10;99.90;;;;;;5156940;27;20082;-76
2024/01/29 04:59:18;;;;;;;11.57;6.27;;;4.00;99.90;;;;;;5156822;27;20052;-76
2024/01/29 05:01:44;;;;;;;9.43;5.90;;;4.10;99.90;;;;;;5121508;27;20051;-76
2024/01/29 05:04:10;;;;;;;12.70;6.47;;;4.10;99.90;;;;;;5156791;27;20054;-76
2024/01/29 05:06:35;;;;;;;9.80;5.80;;;4.10;99.90;;;;;;5156880;27;20039;-73
2024/01/29 05:09:02;;;;;;;9.00;5.73;;;4.10;99.90;;;;;;5156638;27;20046;-76
2024/01/29 05:11:27;;;;;;;11.40;6.43;;;4.10;99.90;;;;;;5138487;27;20046;-76
2024/01/29 05:13:53;;;;;;;9.83;5.63;;;4.10;99.90;;;;;;5156492;27;20045;-76
2024/01/29 05:16:19;;;;;;;9.70;5.37;;;4.10;99.90;;;;;;5138249;27;20049;-76
2024/01/29 05:18:45;;;;;;;8.63;5.67;;;4.10;99.90;;;;;;5156588;27;20042;-76
2024/01/29 05:21:12;;;;;;;9.57;5.97;;;4.10;99.90;;;;;;5156897;27;20045;-76
2024/01/29 05:23:37;;;;;;;9.80;5.50;;;4.10;99.90;;;;;;5156450;27;20075;-74
2024/01/29 05:26:04;;;;;;;9.17;5.77;;;4.10;99.90;;;;;;5138372;27;20054;-76
2024/01/29 05:28:30;;;;;;;12.70;6.65;;;4.00;99.90;;;;;;5156779;27;20042;-76
2024/01/29 05:30:56;;;;;;;10.90;6.18;;;4.00;99.90;;;;;;5156359;27;20395;-76
2024/01/29 05:33:21;;;;;;;12.13;6.57;;;4.10;99.90;;;;;;5138056;27;20047;-76
2024/01/29 05:35:47;;;;;;;10.77;6.17;;;4.10;99.90;;;;;;5137561;27;20045;-76
2024/01/29 05:38:13;;;;;;;10.90;6.33;;;4.10;99.90;;;;;;5120828;27;20062;-76
2024/01/29 05:40:39;;;;;;;9.80;5.70;;;4.00;99.90;;;;;;5156091;27;20066;-76
2024/01/29 05:43:04;;;;;;;12.40;6.37;;;4.00;99.90;;;;;;5137742;27;20103;-76
2024/01/29 05:45:30;;;;;;;9.70;6.03;;;4.00;99.90;;;;;;5156270;27;20046;-76
2024/01/29 05:47:56;;;;;;;11.03;6.43;;;4.10;99.90;;;;;;5155962;27;20446;-76
2024/01/29 05:50:21;;;;;;;10.60;6.70;;;4.10;99.90;;;;;;5156177;27;20046;-76
2024/01/29 05:52:47;;;;;;;10.00;5.93;;;4.10;99.90;;;;;;5155997;27;20050;-76
2024/01/29 05:55:13;;;;;;;13.07;6.90;;;4.10;99.90;;;;;;5155415;27;20047;-76
2024/01/29 05:57:39;;;;;;;10.30;6.77;;;4.10;99.90;;;;;;5155957;27;20038;-76
2024/01/29 06:00:09;;;;;;;10.27;6.37;;;4.10;99.90;;;;;;5155475;27;20086;-76
2024/01/29 06:02:39;;;;;;;11.10;6.25;;;4.10;99.90;;;;;;5156103;27;20038;-76
2024/01/29 06:05:05;;;;;;;11.40;6.50;;;4.10;99.90;;;;;;5137407;27;20055;-76
2024/01/29 06:07:31;;;;;;;12.37;6.90;;;4.10;99.90;;;;;;5155859;27;20049;-76
2024/01/29 06:09:56;;;;;;;13.37;6.70;;;4.10;99.90;;;;;;5155530;27;20474;-76
2024/01/29 06:12:22;;;;;;;9.77;6.20;;;4.10;99.90;;;;;;5155721;27;20043;-76
2024/01/29 06:14:48;;;;;;;8.97;6.30;;;4.10;99.90;;;;;;5155516;27;20039;-76
2024/01/29 06:17:13;;;;;;;11.77;6.53;;;4.10;99.90;;;;;;5155536;27;20077;-77
2024/01/29 06:19:41;;;;;;;12.40;7.17;;;4.10;99.90;;;;;;5155504;27;20049;-77
2024/01/29 06:22:07;;;;;;;10.95;6.28;;;4.10;99.90;;;;;;5155376;27;20043;-76
2024/01/29 06:24:32;;;;;;;10.77;6.10;;;4.10;99.90;;;;;;5155490;27;20037;-76
2024/01/29 06:26:58;;;;;;;9.30;6.97;;;4.10;99.90;;;;;;5136951;27;20052;-76
2024/01/29 06:29:24;;;;;;;11.90;7.17;;;4.10;99.90;;;;;;5155632;27;20047;-76
2024/01/29 06:31:50;;;;;;;8.57;6.28;;;4.10;99.90;;;;;;5136893;27;20111;-76
2024/01/29 06:34:16;;;;;;;10.77;6.60;;;4.00;99.90;;;;;;5154895;27;20046;-76
2024/01/29 06:36:41;;;;;;;9.93;6.37;;;4.10;99.90;;;;;;5154839;27;20100;-76
2024/01/29 06:39:07;;;;;;;10.63;6.73;;;4.10;99.90;;;;;;5154984;27;20763;-76
2024/01/29 06:41:33;;;;;;;10.57;6.70;;;4.00;99.90;;;;;;5155148;27;20046;-76
2024/01/29 06:43:59;;;;;;;11.57;6.40;;;4.00;99.90;;;;;;5155003;27;20048;-76
2024/01/29 06:46:25;;;;;;;11.80;6.95;;;4.00;99.90;;;;;;5136892;27;20053;-76
2024/01/29 06:48:50;;;;;;;11.83;7.57;;;4.00;99.90;;;;;;5154925;27;20046;-77
2024/01/29 06:51:16;;;;;;;10.13;6.43;;;4.00;99.90;;;;;;5155017;27;20423;-77
2024/01/29 06:53:42;;;;;;;11.67;7.07;;;4.00;99.90;;;;;;5155079;27;20486;-77
2024/01/29 06:56:08;;;;;;;10.57;6.90;;;4.00;99.90;;;;;;5154800;27;20566;-76
2024/01/29 06:58:37;;;;;;;11.33;6.53;;;4.00;99.90;;;;;;5154842;27;20291;-76
2024/01/29 07:01:06;;;;;;;12.23;7.70;;;3.90;99.90;;;;;;5154648;27;20038;-76
2024/01/29 07:03:32;;;;;;;12.77;6.97;;;3.90;99.90;;;;;;5154896;27;20053;-76
2024/01/29 07:05:58;;;;;;;13.23;7.53;;;4.00;99.90;;;;;;5154564;27;20226;-76
2024/01/29 07:08:25;;;;;;;13.10;7.37;;;4.00;99.90;;;;;;5153826;27;20122;-76
2024/01/29 07:10:51;;;;;;;10.80;7.55;;;4.00;99.90;;;;;;5154601;27;20130;-74
2024/01/29 07:13:16;;;;;;;10.23;6.73;;;4.00;99.90;;;;;;5154788;27;20125;-76
2024/01/29 07:15:42;;;;;;;15.80;7.27;;;4.00;99.90;;;;;;5154741;27;20471;-76
2024/01/29 07:18:08;;;;;;;12.63;7.47;;;4.00;99.90;;;;;;5154406;27;20125;-76
2024/01/29 07:20:43;;;;;;;11.40;7.63;;;4.10;99.90;;;;;;5154815;27;20134;-76
2024/01/29 07:23:09;;;;;;;8.82;5.80;;;4.00;99.90;;;;;;5154545;27;20058;-76
2024/01/29 07:25:36;;;;;;;14.40;8.13;;;4.00;99.90;;;;;;5136277;27;20046;-76
2024/01/29 07:28:04;;;;;;;10.25;7.05;;;4.00;99.90;;;;;;5154441;27;20046;-75
2024/01/29 07:30:31;;;;;;;13.68;7.47;;;4.00;99.90;;;;;;5154607;27;20129;-76
2024/01/29 07:32:57;;;;;;;11.07;7.60;;;4.00;99.90;;;;;;5154728;27;20492;-76
2024/01/29 07:35:23;;;;;;;12.43;7.50;;;4.00;99.90;;;;;;5154554;27;20125;-76
2024/01/29 07:37:49;;;;;;;15.23;7.53;;;4.00;99.90;;;;;;5132366;28;20130;-76
2024/01/29 07:40:14;;;;;;;11.00;7.63;;;4.00;99.90;;;;;;5133578;28;20054;-76
2024/01/29 07:42:40;;;;;;;11.70;7.63;;;4.00;99.90;;;;;;5133808;28;20043;-77
2024/01/29 07:45:06;;;;;;;10.50;7.87;;;4.00;99.90;;;;;;5133627;27;20491;-76
2024/01/29 07:47:32;;;;;;;11.82;7.53;;;4.00;99.90;;;;;;5133043;28;20047;-76
2024/01/29 07:49:58;;;;;;;11.87;7.53;;;4.00;99.90;;;;;;5133195;27;20051;-76
2024/01/29 07:52:23;;;;;;;11.13;7.60;;;4.10;99.90;;;;;;5133787;27;20051;-76
2024/01/29 07:54:49;;;;;;;12.13;7.67;;;4.10;99.90;;;;;;5133709;27;20043;-76
2024/01/29 07:57:15;;;;;;;12.50;8.20;;;4.10;99.90;;;;;;5133297;28;20103;-76
2024/01/29 07:59:40;;;;;;;12.47;8.20;;;4.10;99.90;;;;;;5133658;27;20043;-76
2024/01/29 08:02:07;;;;;;;12.63;8.07;;;4.10;99.90;;;;;;5132461;28;20457;-76
2024/01/29 08:04:33;;;;;;;11.23;8.00;;;4.00;99.90;;;;;;5133645;27;20436;-76
2024/01/29 08:06:59;;;;;;;10.60;6.97;;;4.20;99.90;;;;;;5133318;28;20039;-78
2024/01/29 08:09:28;;;;;;;12.90;7.90;;;4.20;99.90;;;;;;5133509;27;20059;-77
2024/01/29 08:11:53;;;;;;;11.13;8.07;;;4.20;99.90;;;;;;5133524;27;20055;-77
2024/01/29 08:14:19;;;;;;;10.90;7.40;;;4.20;99.90;;;;;;5133292;28;20046;-76
2024/01/29 08:16:45;;;;;;;12.47;8.50;;;4.20;99.90;;;;;;5133461;27;20448;-76
2024/01/29 08:19:11;;;;;;;11.43;8.30;;;4.30;99.90;;;;;;5134872;27;20432;-76
2024/01/29 08:21:37;;;;;;;11.98;8.50;;;4.30;99.90;;;;;;5137518;27;20047;-76
2024/01/29 08:24:04;;;;;;;13.37;8.40;;;4.30;99.90;;;;;;5137005;27;20095;-76
2024/01/29 08:26:30;;;;;;;15.98;8.85;;;4.30;99.90;;;;;;5137184;27;20049;-76
2024/01/29 08:28:56;;;;;;;15.30;9.27;;;4.30;99.90;;;;;;5136207;27;20096;-76
2024/01/29 08:31:22;;;;;;;14.13;8.60;;;4.30;99.90;;;;;;5135848;27;20047;-76
2024/01/29 08:33:47;;;;;;;11.90;8.33;;;4.40;99.90;;;;;;5137036;27;20740;-76
2024/01/29 08:36:16;;;;;;;13.83;8.20;;;4.40;99.90;;;;;;5142272;27;20062;-76
2024/01/29 08:38:42;;;;;;;12.65;8.05;;;4.40;99.90;;;;;;5157808;27;20039;-76
2024/01/29 08:41:09;;;;;;;14.15;8.43;;;4.40;99.90;;;;;;5157470;27;20054;-76
2024/01/29 08:43:34;;;;;;;11.23;7.95;;;4.40;99.90;;;;;;5156818;27;20050;-76
2024/01/29 08:46:00;;;;;;;11.20;8.37;;;4.40;99.90;;;;;;5157385;27;20493;-76
2024/01/29 08:48:26;;;;;;;12.20;9.23;;;4.40;99.90;;;;;;5138928;27;20046;-76
2024/01/29 08:50:52;;;;;;;12.80;8.93;;;4.50;99.90;;;;;;5157570;27;20050;-76
2024/01/29 08:53:17;;;;;;;13.10;8.57;;;4.40;99.90;;;;;;5157100;27;20384;-76
2024/01/29 08:55:43;;;;;;;11.20;8.10;;;4.50;99.90;;;;;;5157355;27;20051;-76
2024/01/29 08:58:09;;;;;;;13.37;9.23;;;4.50;99.90;;;;;;5156949;27;20134;-76
2024/01/29 09:00:35;;;;;;;12.30;9.33;;;4.50;99.90;;;;;;5157310;27;20035;-76
2024/01/29 09:03:00;;;;;;;16.53;9.50;;;4.50;99.90;;;;;;5157134;27;20046;-76
2024/01/29 09:05:26;;;;;;;11.77;8.17;;;4.60;99.90;;;;;;5156816;27;20044;-76
2024/01/29 09:07:52;;;;;;;11.60;8.43;;;4.60;99.90;;;;;;5157161;27;20497;-76
2024/01/29 09:10:18;;;;;;;15.00;9.53;;;4.70;99.90;;;;;;5156493;27;20050;-76
2024/01/29 09:12:44;;;;;;;13.63;8.57;;;4.70;99.90;;;;;;5156931;27;20312;-76
2024/01/29 09:15:09;;;;;;;12.67;9.30;;;4.70;99.90;;;;;;5156658;27;20046;-76
2024/01/29 09:17:35;;;;;;;13.13;9.33;;;4.80;99.90;;;;;;5156781;27;20038;-76
2024/01/29 09:20:06;;;;;;;14.77;9.25;;;4.80;99.90;;;;;;5138367;27;20083;-77
2024/01/29 09:22:32;;;;;;;13.60;9.27;;;4.90;99.90;;;;;;5156756;27;20119;-76
2024/01/29 09:24:58;;;;;;;12.77;9.73;;;5.00;99.90;;;;;;5156835;27;20083;-76
2024/01/29 09:27:24;;;;;;;15.27;9.83;;;5.00;99.90;;;;;;5156542;27;20486;-76
2024/01/29 09:29:49;;;;;;;13.67;9.07;;;5.00;99.90;;;;;;5155950;27;20424;-76
2024/01/29 09:32:15;;;;;;;16.47;10.23;;;5.10;99.90;;;;;;5155942;27;20182;-76
2024/01/29 09:34:41;;;;;;;15.67;10.30;;;5.10;99.90;;;;;;5156491;27;20171;-76
2024/01/29 09:37:07;;;;;;;14.17;10.43;;;5.20;99.90;;;;;;5156055;27;20051;-74
2024/01/29 09:39:32;;;;;;;13.77;10.13;;;5.20;99.90;;;;;;5138225;27;20065;-76
2024/01/29 09:42:03;;;;;;;13.53;10.20;;;5.30;99.90;;;;;;5156353;27;20043;-76
2024/01/29 09:44:38;;;;;;;15.32;10.32;;;5.30;99.90;;;;;;5137888;27;20129;-76
2024/01/29 09:47:09;;;;;;;14.07;10.23;;;5.30;99.90;;;;;;5156476;27;20111;-77
2024/01/29 09:49:35;;;;;;;17.10;10.85;;;5.40;99.90;;;;;;5156172;27;20050;-76
2024/01/29 09:52:06;;;;;;;14.45;10.05;;;5.40;99.90;;;;;;5156128;27;20393;-76
2024/01/29 09:54:33;;;;;;;14.35;9.98;;;5.50;99.90;;;;;;5155970;27;20471;-76
2024/01/29 09:56:59;;;;;;;13.93;9.68;;;5.50;99.90;;;;;;5156010;27;20127;-76
2024/01/29 09:59:25;;;;;;;13.83;10.07;;;5.50;99.90;;;;;;5155853;27;20090;-76
2024/01/29 10:01:52;;;;;;;14.82;10.43;;;5.60;99.90;;;;;;5155655;27;20844;-77
2024/01/29 10:04:19;;;;;;;14.60;10.02;;;5.70;99.90;;;;;;5155737;27;20393;-76
2024/01/29 10:06:44;;;;;;;12.68;9.75;;;5.70;99.90;;;;;;5155856;27;20054;-76
2024/01/29 10:09:11;;;;;;;15.43;10.60;;;5.80;99.90;;;;;;5155601;27;20046;-75
2024/01/29 10:11:39;;;;;;;16.55;10.48;;;5.80;99.90;;;;;;5155986;27;20049;-76
2024/01/29 10:14:06;;;;;;;14.85;10.25;;;5.90;99.90;;;;;;5155761;27;20047;-77
2024/01/29 10:16:32;;;;;;;16.10;10.48;;;5.90;99.90;;;;;;5155442;27;20054;-76
2024/01/29 10:19:02;;;;;;;16.77;10.50;;;6.00;99.90;;;;;;5155667;27;20054;-76
2024/01/29 10:21:36;;;;;;;15.48;9.75;;;6.10;99.90;;;;;;5155305;27;20050;-76
2024/01/29 10:24:02;;;;;;;14.82;10.68;;;6.20;99.90;;;;;;5155591;27;20116;-77
2024/01/29 10:26:28;;;;;;;16.27;11.10;;;6.20;99.90;;;;;;5155320;27;20115;-76
2024/01/29 10:29:04;;;;;;;13.50;10.67;;;6.20;99.90;;;;;;5155424;27;20069;-76
2024/01/29 10:31:31;;;;;;;15.05;11.05;;;6.20;99.90;;;;;;5155195;27;20185;-76
2024/01/29 10:33:57;;;;;;;17.65;11.10;;;6.20;99.90;;;;;;5155598;27;20047;-76
2024/01/29 10:36:24;;;;;;;14.23;11.43;;;6.20;99.90;;;;;;5154845;27;20406;-76
2024/01/29 10:38:50;;;;;;;15.63;10.38;;;6.20;99.90;;;;;;5155206;27;20034;-76
2024/01/29 10:41:17;;;;;;;15.52;11.50;;;6.20;99.90;;;;;;5154746;27;20074;-76
2024/01/29 10:43:48;;;;;;;15.38;11.50;;;6.30;99.90;;;;;;5155178;27;20045;-77
2024/01/29 10:46:22;;;;;;;18.08;11.57;;;6.30;99.90;;;;;;5136865;27;20046;-76
2024/01/29 10:48:49;;;;;;;16.02;10.40;;;6.30;99.90;;;;;;5155502;27;20091;-76
2024/01/29 10:51:16;;;;;;;17.92;11.75;;;6.30;99.90;;;;;;5136452;27;20046;-76
2024/01/29 10:53:43;;;;;;;17.75;11.85;;;6.30;99.90;;;;;;5154986;27;20102;-77
2024/01/29 10:56:09;;;;;;;15.80;11.82;;;6.40;99.90;;;;;;5155028;27;20047;-77
2024/01/29 10:58:37;;;;;;;17.17;11.95;;;6.40;99.90;;;;;;5136243;27;20055;-77
2024/01/29 11:01:05;;;;;;;17.58;11.57;;;6.40;99.90;;;;;;5155061;27;20126;-77
2024/01/29 11:03:31;;;;;;;16.23;11.45;;;6.40;99.90;;;;;;5154673;27;20179;-77
2024/01/29 11:06:06;;;;;;;18.20;11.82;;;6.50;99.90;;;;;;5119492;27;20092;-77
2024/01/29 11:08:35;;;;;;;17.77;11.98;;;6.50;99.90;;;;;;5154659;27;20038;-76
2024/01/29 11:11:02;;;;;;;18.38;12.57;;;6.50;99.90;;;;;;5154732;27;20057;-76
2024/01/29 11:13:30;;;;;;;18.00;12.40;;;6.60;99.90;;;;;;5154523;27;20393;-76
2024/01/29 11:15:55;;;;;;;20.58;12.27;;;6.60;99.90;;;;;;5154719;27;20043;-77
2024/01/29 11:18:21;;;;;;;20.60;13.73;;;6.70;99.90;;;;;;5154510;27;20126;-76
2024/01/29 11:20:51;;;;;;;20.50;13.33;;;6.70;99.90;;;;;;5154739;27;20064;-77
2024/01/29 11:23:21;;;;;;;18.97;12.20;;;6.80;99.90;;;;;;5136120;27;20449;-77
2024/01/29 11:25:49;;;;;;;23.98;13.57;;;6.80;99.90;;;;;;5154994;27;20736;-77
2024/01/29 11:28:15;;;;;;;21.70;13.35;;;6.90;99.90;;;;;;5154566;27;20061;-77
2024/01/29 11:30:48;;;;;;;27.90;13.40;;;6.90;99.90;;;;;;5154377;27;20047;-78
2024/01/29 11:33:18;;;;;;;26.38;14.98;;;6.90;99.90;;;;;;5154808;27;20408;-77
2024/01/29 11:35:55;;;;;;;24.45;13.38;;;7.00;99.90;;;;;;5154371;27;20085;-76
2024/01/29 11:38:23;;;;;;;29.33;15.57;;;7.00;99.90;;;;;;5154287;27;20082;-76
2024/01/29 11:40:49;;;;;;;24.95;13.05;;;7.00;99.90;;;;;;5154519;27;20276;-77
2024/01/29 11:43:20;;;;;;;27.05;14.40;;;7.00;99.90;;;;;;5154482;27;20051;-77
2024/01/29 11:45:49;;;;;;;21.25;13.90;;;7.00;99.90;;;;;;5154619;27;20046;-76
2024/01/29 11:48:16;;;;;;;24.93;14.17;;;7.00;99.90;;;;;;5135870;27;20046;-77
2024/01/29 11:50:46;;;;;;;23.45;14.25;;;7.00;99.90;;;;;;5154182;27;20367;-77
2024/01/29 11:53:17;;;;;;;24.58;14.43;;;7.00;99.90;;;;;;5154823;27;20039;-77
2024/01/29 11:55:44;;;;;;;26.27;15.53;;;7.10;99.90;;;;;;5158422;27;20047;-77
2024/01/29 11:58:15;;;;;;;25.13;13.60;;;7.10;99.90;;;;;;5158403;27;20315;-77
2024/01/29 12:00:45;;;;;;;20.45;13.10;;;7.10;99.90;;;;;;5158173;27;20497;-77
2024/01/29 12:03:12;;;;;;;21.57;13.73;;;7.10;99.90;;;;;;5158419;27;20051;-77
2024/01/29 12:05:38;;;;;;;26.27;14.30;;;7.10;99.90;;;;;;5158035;27;20782;-77
2024/01/29 12:08:18;;;;;;;22.30;13.87;;;7.10;99.90;;;;;;5158198;27;20273;-77
2024/01/29 12:10:45;;;;;;;27.90;15.30;;;7.10;99.90;;;;;;5139733;27;20779;-77
2024/01/29 12:13:19;;;;;;;30.00;16.30;;;7.10;99.90;;;;;;5158269;27;20276;-76
2024/01/29 12:15:47;;;;;;;34.35;16.13;;;7.20;99.90;;;;;;5139379;27;20371;-77
2024/01/29 12:18:27;;;;;;;35.83;16.37;;;7.10;99.90;;;;;;5158031;27;20096;-77
2024/01/29 12:20:54;;;;;;;34.43;18.00;;;7.20;99.90;;;;;;5157962;27;20382;-77
2024/01/29 12:23:23;;;;;;;31.67;17.17;;;7.10;99.90;;;;;;5157951;27;20276;-77
2024/01/29 12:25:56;;;;;;;34.23;16.70;;;7.10;99.90;;;;;;5157711;27;20632;-77
2024/01/29 12:28:23;;;;;;;26.73;15.80;;;7.10;99.90;;;;;;5139354;27;20281;-77
2024/01/29 12:30:55;;;;;;;31.27;15.60;;;7.10;99.90;;;;;;5157604;27;20046;-76
2024/01/29 12:33:28;;;;;;;35.83;16.25;;;7.10;99.90;;;;;;5157736;27;20284;-77
2024/01/29 12:35:55;;;;;;;36.07;17.60;;;7.10;99.90;;;;;;5157800;27;20088;-77
2024/01/29 12:38:23;;;;;;;39.75;17.40;;;7.20;99.90;;;;;;5157800;27;20609;-77
2024/01/29 12:40:58;;;;;;;29.63;14.83;;;7.20;99.90;;;;;;5157386;27;20114;-77
2024/01/29 12:43:27;;;;;;;31.00;16.17;;;7.20;99.90;;;;;;5157748;27;20276;-77
2024/01/29 12:46:14;;;;;;;28.20;15.93;;;7.30;99.90;;;;;;5157742;27;20272;-77